• Join FlightAware (Why Join?)
  • Login
  • US Flag 
04:14AM EDT


 

Airport Tracker/Info


-or-


 

Live Flight TrackerFlight Track Log ✈ UAL761 ✈ 23-Aug-2014 ✈ KORD - KSFO

Flight Track Log - Related Links

Times and Time Zones

All times are in EDT time to prevent confusion due to time zone crossing. See the UAL761 flight status page for this flight to view local times or setup timezone preferences in your user account.

Time Position Orientation Groundspeed Altitude Reporting Facility
EDT Latitude Longitude Course Direction KTS MPH feet Rate Location/Type
08:18AM 41.9667 -87.9500 197° South 180 207 1,600  Level Chicago TRACON
08:19AM 41.9167 -87.9667 215° Southwest 239 275 2,700 1,680 Climbing Chicago TRACON
08:20AM 41.8708 -87.9658 179° South 244 281 4,400 2,340 Climbing Chicago Center
08:20AM 41.5431 -88.1061 197° South  Level FlightAware Approximate
08:21AM 41.4326 -88.1503 194° South  Level FlightAware Approximate
08:21AM 41.7967 -87.9642 179° South 267 307 6,700  Level Chicago Center
08:22AM 41.3238 -88.1998 203° Southwest  Level FlightAware Approximate
08:22AM 41.7197 -87.9761 187° South 288 331 8,800  Level Chicago Center
08:23AM 41.2168 -88.2567 197° South  Level FlightAware Approximate
08:23AM 41.6397 -88.0281 206° Southwest 299 344 11,000  Level Chicago Center
08:24AM 41.5628 -88.0767 205° Southwest 307 353 13,000 1,380 Climbing Chicago Center
08:25AM 41.4817 -88.1289 206° Southwest 329 379 13,900 780 Climbing Chicago Center
08:26AM 41.3789 -88.1950 206° Southwest 395 455 14,700 1,020 Climbing Chicago Center
08:27AM 41.2711 -88.2411 198° South 406 467 16,100 1,440 Climbing Chicago Center
08:28AM 41.1628 -88.2892 198° South 409 471 17,700 1,260 Climbing Chicago Center
08:29AM 41.0692 -88.3314 199° South 410 472 18,700 1,080 Climbing Chicago Center
08:30AM 40.9353 -88.3919 199° South 419 482 20,000 1,140 Climbing Chicago Center
08:31AM 40.8214 -88.4433 199° South 428 493 21,100 1,020 Climbing Chicago Center
08:32AM 40.7056 -88.4942 198° South 436 502 22,100 780 Climbing Chicago Center
08:33AM 40.5864 -88.5469 199° South 448 516 22,800 780 Climbing Chicago Center
08:34AM 40.4669 -88.5989 198° South 450 518 23,700 780 Climbing Chicago Center
08:35AM 40.3522 -88.6508 199° South 451 519 24,500 660 Climbing Chicago Center
08:36AM 40.2511 -88.7511 217° Southwest 462 532 25,100 600 Climbing Chicago Center
08:37AM 40.1586 -88.8686 224° Southwest 462 532 25,800 660 Climbing Chicago Center
08:38AM 40.0642 -88.9886 224° Southwest 462 532 26,400 600 Climbing Kansas City Center
08:39AM 39.9694 -89.1069 224° Southwest 465 535 27,000 600 Climbing Kansas City Center
08:40AM 39.8742 -89.2281 224° Southwest 472 543 27,700 600 Climbing Kansas City Center
08:41AM 39.7783 -89.3481 224° Southwest 473 544 28,300 600 Climbing Kansas City Center
08:42AM 39.6947 -89.4536 224° Southwest 474 545 29,000 720 Climbing Kansas City Center
08:43AM 39.5897 -89.6017 227° Southwest 472 543 29,800 720 Climbing Kansas City Center
08:44AM 39.5628 -89.7653 258° West 479 551 30,500 540 Climbing Kansas City Center
08:45AM 39.5578 -89.9361 268° West 479 551 31,000 600 Climbing Kansas City Center
08:46AM 39.5525 -90.1044 268° West 478 550 31,800 600 Climbing Kansas City Center
08:47AM 39.5467 -90.2753 268° West 478 550 32,300 540 Climbing Kansas City Center
08:48AM 39.5406 -90.4414 267° West 472 543 32,900 540 Climbing Kansas City Center
08:49AM 39.5350 -90.6075 268° West 469 540 33,500 360 Climbing Kansas City Center
08:50AM 39.5281 -90.7728 267° West 468 539 33,700 240 Climbing Kansas City Center
08:51AM 39.5200 -90.9706 267° West 467 537 34,000 120 Climbing Kansas City Center
08:52AM 39.5142 -91.1367 267° West 465 535 34,000  Level Kansas City Center
08:53AM 39.5067 -91.3056 267° West 466 536 34,000  Level Kansas City Center
08:54AM 39.4986 -91.4739 267° West 466 536 34,000  Level Kansas City Center
08:55AM 39.4911 -91.6425 267° West 467 537 34,000  Level Kansas City Center
08:56AM 39.4822 -91.8103 266° West 467 537 34,000  Level Kansas City Center
08:57AM 39.4742 -91.9775 266° West 467 537 34,000  Level Kansas City Center
08:58AM 39.4658 -92.1442 266° West 467 537 34,000  Level Kansas City Center
08:59AM 39.4558 -92.3467 266° West 467 537 34,000  Level Kansas City Center
09:00AM 39.4456 -92.5156 266° West 468 539 34,000  Level Kansas City Center
09:01AM 39.4375 -92.6847 267° West 468 539 34,000  Level Kansas City Center
09:02AM 39.4267 -92.8558 265° West 473 544 34,000  Level Kansas City Center
09:03AM 39.4172 -93.0256 266° West 473 544 34,000  Level Kansas City Center
09:04AM 39.4067 -93.1953 265° West 474 545 34,000  Level Kansas City Center
09:05AM 39.3953 -93.3644 265° West 474 545 34,000  Level Kansas City Center
09:06AM 39.3847 -93.5728 266° West 482 555 34,000  Level Kansas City Center
09:07AM 39.3733 -93.7408 265° West 478 550 34,000  Level Kansas City Center
09:08AM 39.3631 -93.8936 265° West 475 547 34,000  Level Kansas City Center
09:09AM 39.3494 -94.0967 265° West 474 545 34,000  Level Kansas City Center
09:10AM 39.3383 -94.2667 265° West 475 547 34,000  Level Kansas City Center
09:11AM 39.3261 -94.4364 265° West 475 547 34,000  Level Kansas City Center
09:13AM 39.3150 -94.6050 265° West 474 545 34,000  Level Kansas City Center
09:14AM 39.3006 -94.7747 264° West 474 545 34,000  Level Kansas City Center
09:15AM 39.2878 -94.9467 265° West 491 565 34,000  Level Kansas City Center
09:16AM 39.2725 -95.1442 264° West 473 544 34,000  Level Kansas City Center
09:17AM 39.2594 -95.3206 265° West 473 544 34,000  Level Kansas City Center
09:18AM 39.2469 -95.4719 264° West 475 547 34,000  Level Kansas City Center
09:19AM 39.2339 -95.6417 264° West 478 550 34,000  Level Kansas City Center
09:20AM 39.2197 -95.8122 264° West 478 550 34,000  Level Kansas City Center
09:21AM 39.2025 -96.0172 264° West 478 550 34,000  Level Kansas City Center
09:22AM 39.1881 -96.1861 264° West 478 550 34,000  Level Kansas City Center
09:23AM 39.1731 -96.3567 264° West 478 550 34,000  Level Kansas City Center
09:24AM 39.1583 -96.5283 264° West 481 554 34,000  Level Kansas City Center
09:25AM 39.1461 -96.7025 265° West 487 560 34,000  Level Kansas City Center
09:26AM 39.1536 -96.8753 273° West 486 559 34,000  Level Kansas City Center
09:27AM 39.1625 -97.0506 274° West 487 560 34,000  Level Kansas City Center
09:28AM 39.1719 -97.2592 273° West 488 562 34,000  Level Kansas City Center
09:29AM 39.1786 -97.4328 273° West 488 562 34,000  Level Kansas City Center
09:30AM 39.1858 -97.6058 273° West 486 559 34,000  Level Kansas City Center
09:31AM 39.1919 -97.7806 273° West 487 560 34,000  Level Kansas City Center
09:32AM 39.1989 -97.9603 273° West 487 560 34,000  Level Kansas City Center
09:33AM 39.2050 -98.1331 273° West 487 560 34,000  Level Kansas City Center
09:34AM 39.2111 -98.3050 273° West 487 560 34,000  Level Kansas City Center
09:35AM 39.2161 -98.4978 272° West 486 559 34,000  Level Kansas City Center
09:36AM 39.2231 -98.6806 273° West 483 556 34,000  Level Kansas City Center
09:37AM 39.2289 -98.8528 273° West 482 555 34,000  Level Kansas City Center
09:38AM 39.2317 -99.0308 271° West 487 560 34,000  Level Kansas City Center
09:39AM 39.2367 -99.2017 272° West 482 555 34,000  Level Kansas City Center
09:40AM 39.2411 -99.3731 272° West 482 555 34,000  Level Kansas City Center
09:41AM 39.2450 -99.5439 272° West 482 555 34,000  Level Kansas City Center
09:42AM 39.2500 -99.7511 272° West 480 552 34,000  Level Kansas City Center
09:43AM 39.2539 -99.9144 272° West 478 550 34,000  Level Kansas City Center
09:44AM 39.2561 -100.1028 271° West 477 549 34,000  Level Kansas City Center
09:45AM 39.2486 -100.2622 267° West 476 548 34,000  Level Kansas City Center
09:47AM 39.2089 -100.4619 256° West 468 539 34,000  Level Denver Center
09:48AM 39.1761 -100.6111 254° West 459 528 34,000  Level Denver Center
09:49AM 39.1447 -100.7636 255° West 459 528 34,000  Level Denver Center
09:50AM 39.1064 -100.9428 255° West 461 531 34,000  Level Denver Center
09:51AM 39.0736 -101.0942 254° West 461 531 34,000  Level Denver Center
09:52AM 39.0408 -101.2436 254° West 458 527 34,000 -60 Level Denver Center
09:53AM 39.0033 -101.4172 255° West 455 524 33,900  Descending Denver Center
09:54AM 38.9711 -101.5628 254° West 448 516 34,000  Climbing Denver Center
09:55AM 38.9386 -101.7094 254° West 448 516 34,000  Level Denver Center
09:56AM 38.9006 -101.8819 254° West 448 516 34,000  Level Denver Center
09:57AM 38.8667 -102.0306 254° West 450 518 34,000  Level Denver Center
09:58AM 38.8278 -102.2028 254° West 450 518 34,100  Climbing Denver Center
09:59AM 38.7922 -102.3506 253° West 451 519 34,000 -60 Descending Denver Center
10:00AM 38.7606 -102.4953 254° West 449 517 34,000  Level Denver Center
10:01AM 38.7206 -102.6636 253° West 446 513 34,000  Level Denver Center
10:02AM 38.6853 -102.8128 253° West 443 510 34,000  Level Denver Center
10:03AM 38.6506 -102.9617 253° West 441 507 34,000  Level Denver Center
10:04AM 38.6153 -103.1103 253° West 441 507 34,000  Level Denver Center
10:05AM 38.5800 -103.2594 253° West 440 506 34,000  Level Denver Center
10:06AM 38.5411 -103.4236 253° West 438 504 34,000  Level Denver Center
10:07AM 38.5044 -103.5753 253° West 438 504 34,000  Level Denver Center
10:08AM 38.4694 -103.7183 253° West 430 495 34,000  Level Denver Center
10:09AM 38.4344 -103.8608 253° West 426 490 34,000 -60 Level Denver Center
10:10AM 38.4000 -104.0033 253° West 426 490 33,900  Descending Denver Center
10:11AM 38.3611 -104.1592 252° West 424 488 34,000  Climbing Denver Center
10:12AM 38.3281 -104.2928 253° West 432 497 34,000  Level Denver Center
10:13AM 38.3025 -104.4428 258° West 441 507 34,000  Level Denver Center
10:14AM 38.3047 -104.6006 271° West 445 512 34,000  Level Denver Center
10:15AM 38.3189 -104.7881 276° West 446 513 34,000  Level Denver Center
10:16AM 38.3292 -104.9417 275° West 443 510 34,000  Level Denver Center
10:17AM 38.3400 -105.0958 275° West 442 509 34,000  Level Denver Center
10:18AM 38.3489 -105.2397 275° West 442 509 34,000  Level Denver Center
10:19AM 38.3586 -105.3928 275° West 439 505 34,000  Level Denver Center
10:20AM 38.3703 -105.5758 275° West 435 501 34,000  Level Denver Center
10:21AM 38.3794 -105.7289 274° West 435 501 34,000  Level Denver Center
10:22AM 38.3894 -105.8911 275° West 435 501 34,100  Climbing Denver Center
10:23AM 38.3992 -106.0436 275° West 436 502 34,000 -120 Descending Denver Center
10:24AM 38.4061 -106.1914 273° West 432 497 33,900  Descending Denver Center
10:25AM 38.4158 -106.3458 275° West 434 499 34,000  Climbing Denver Center
10:26AM 38.4239 -106.5008 274° West 434 499 34,000  Level Denver Center
10:28AM 38.4325 -106.6567 274° West 436 502 34,000  Level Denver Center
10:29AM 38.4403 -106.8108 274° West 436 502 34,000  Level Denver Center
10:30AM 38.4475 -106.9636 274° West 434 499 34,000  Level Denver Center
10:31AM 38.4522 -107.1478 272° West 433 498 34,000  Level Denver Center
10:32AM 38.4517 -107.2836 270° West 429 494 34,000  Level Denver Center
10:33AM 38.4525 -107.4622 270° West 428 493 34,000  Level Denver Center
10:34AM 38.4531 -107.6111 270° West 425 489 34,000  Level Denver Center
10:35AM 38.4533 -107.7589 270° West 421 484 34,000  Level Denver Center
10:36AM 38.4528 -107.9067 270° West 419 482 34,000  Level Denver Center
10:37AM 38.4531 -108.0506 270° West 412 474 34,000  Level Denver Center
10:38AM 38.4519 -108.1964 269° West 411 473 34,000  Level Denver Center
10:39AM 38.4528 -108.3386 270° West 407 468 34,000  Level Denver Center
10:40AM 38.4508 -108.5139 269° West 407 468 34,000  Level Denver Center
10:41AM 38.4500 -108.6622 270° West 418 481 34,000  Level Denver Center
10:42AM 38.4492 -108.8067 270° West 411 473 34,000  Level Denver Center
10:43AM 38.4478 -108.9492 269° West 406 467 34,000  Level Denver Center
10:44AM 38.4456 -109.0914 269° West 403 464 34,000  Level Denver Center
10:45AM 38.4439 -109.2358 269° West 404 465 34,000  Level Denver Center
10:46AM 38.4425 -109.3831 269° West 411 473 34,100  Climbing Denver Center
10:47AM 38.4394 -109.5542 269° West 408 470 34,000 -60 Descending Denver Center
10:48AM 38.4372 -109.6964 269° West 405 466 34,000  Level Denver Center
10:49AM 38.4350 -109.8411 269° West 405 466 34,000  Level Denver Center
10:50AM 38.4317 -109.9842 268° West 405 466 34,000  Level Denver Center
10:51AM 38.4294 -110.1289 269° West 407 468 34,000  Level Denver Center
10:52AM 38.4269 -110.2731 269° West 407 468 34,000  Level Denver Center
10:53AM 38.4231 -110.4181 268° West 407 468 34,000  Level Denver Center
10:54AM 38.4186 -110.5903 268° West 407 468 34,000  Level Denver Center
10:55AM 38.4147 -110.7314 268° West 402 463 34,000  Level Salt Lake Center
10:56AM 38.4136 -110.8744 269° West 402 463 34,000  Level Salt Lake Center
10:57AM 38.4114 -111.0086 269° West 402 463 34,000  Level Salt Lake Center
10:58AM 38.4094 -111.1803 269° West 404 465 34,000  Level Salt Lake Center
11:00AM 38.4064 -111.3208 268° West 403 464 34,000  Level Salt Lake Center
11:01AM 38.4017 -111.4606 268° West 398 458 34,000  Level Salt Lake Center
11:02AM 38.3994 -111.6022 269° West 399 459 34,000  Level Salt Lake Center
11:03AM 38.3961 -111.7447 268° West 400 460 34,000  Level Salt Lake Center
11:04AM 38.3939 -111.8875 269° West 401 461 34,000  Level Salt Lake Center
11:05AM 38.3883 -112.0556 268° West 401 461 34,000  Level Salt Lake Center
11:06AM 38.3856 -112.1972 269° West 401 461 34,000  Level Salt Lake Center
11:07AM 38.3814 -112.3367 268° West 400 460 34,000  Level Salt Lake Center
11:08AM 38.3775 -112.4769 268° West 400 460 34,000  Level Salt Lake Center
11:09AM 38.3725 -112.6164 267° West 399 459 34,000  Level Salt Lake Center
11:10AM 38.3683 -112.7853 268° West 399 459 34,000  Level Salt Lake Center
11:11AM 38.3633 -112.9261 267° West 399 459 34,000  Level Salt Lake Center
11:12AM 38.3575 -113.0653 267° West 399 459 34,000  Level Salt Lake Center
11:13AM 38.3461 -113.2047 264° West 399 459 34,000  Level Salt Lake Center
11:14AM 38.3356 -113.3447 265° West 399 459 34,000  Level Salt Lake Center
11:15AM 38.3244 -113.4839 264° West 399 459 34,000  Level Salt Lake Center
11:16AM 38.3117 -113.6525 265° West 399 459 34,000  Level Salt Lake Center
11:17AM 38.2997 -113.7919 264° West 399 459 34,000  Level Salt Lake Center
11:18AM 38.2886 -113.9314 264° West 399 459 34,000  Level Salt Lake Center
11:19AM 38.2764 -114.0711 264° West 399 459 34,000  Level Salt Lake Center
11:20AM 38.2658 -114.2128 265° West 400 460 34,000  Level Salt Lake Center
11:21AM 38.2517 -114.3811 264° West 400 460 34,000  Level Salt Lake Center
11:22AM 38.2444 -114.5233 266° West 402 463 34,000  Level Salt Lake Center
11:23AM 38.2408 -114.6650 268° West 402 463 34,000  Level Salt Lake Center
11:24AM 38.2350 -114.8069 267° West 404 465 34,000  Level Salt Lake Center
11:26AM 38.2250 -115.0908 267° West 403 464 34,000  Level Salt Lake Center
11:27AM 38.2186 -115.2614 267° West 403 464 34,000  Level Salt Lake Center
11:28AM 38.2131 -115.3839 267° West 402 463 34,000  Level Salt Lake Center
11:30AM 38.2053 -115.6117 268° West 403 464 34,000  Level Oakland Center
11:31AM 38.1997 -115.6964 265° West 402 463 34,000  Level Salt Lake Center
11:32AM 38.1931 -115.8386 267° West 402 463 34,000  Level Salt Lake Center
11:33AM 38.1867 -115.9814 267° West 404 465 34,000  Level Salt Lake Center
11:34AM 38.1792 -116.1242 266° West 404 465 34,000  Level Salt Lake Center
11:35AM 38.1731 -116.2669 267° West 404 465 34,000  Level Salt Lake Center
11:36AM 38.1639 -116.4389 266° West 404 465 34,000  Level Salt Lake Center
11:37AM 38.1561 -116.5825 266° West 405 466 34,000  Level Salt Lake Center
11:38AM 38.1489 -116.7267 266° West 408 470 34,000  Level Salt Lake Center
11:39AM 38.1417 -116.8692 266° West 408 470 34,000  Level Salt Lake Center
11:40AM 38.1344 -117.0011 266° West 382 440 34,000  Level Salt Lake Center
11:41AM 38.1269 -117.1428 266° West 377 434 34,000  Level Salt Lake Center
11:42AM 38.1144 -117.2839 264° West 386 444 34,000  Level Salt Lake Center
11:43AM 38.0661 -117.4003 242° Southwest 393 452 34,000  Level Salt Lake Center
11:44AM 37.9389 -117.4644 202° Southwest 413 475 34,000  Level Salt Lake Center
11:45AM 37.8275 -117.5083 197° South 418 481 34,000  Level Salt Lake Center
11:46AM 37.7172 -117.5522 197° South 420 483 34,000  Level Salt Lake Center
11:47AM 37.6156 -117.6522 218° Southwest 402 463 34,000  Level Oakland Center
11:49AM 37.6028 -117.8906 266° West 378 435 34,000  Level Salt Lake Center
11:50AM 37.6056 -118.0228 272° West 378 435 34,000  Level Salt Lake Center
11:51AM 37.6094 -118.1806 272° West 377 434 34,000  Level Salt Lake Center
11:52AM 37.6114 -118.3139 271° West 377 434 34,000  Level Salt Lake Center
11:53AM 37.6128 -118.4478 271° West 379 436 34,000 -840 Level Salt Lake Center
11:55AM 37.6150 -118.6086 271° West 382 440 32,200 -900 Descending Oakland Center
11:56AM 37.6172 -118.7431 271° West 382 440 32,000 -120 Descending Oakland Center
11:57AM 37.6186 -118.8769 271° West 386 444 32,000  Level Oakland Center
11:58AM 37.6206 -119.0122 271° West 386 444 32,000  Level Oakland Center
11:59AM 37.6225 -119.1750 271° West 387 445 32,000  Level Oakland Center
12:00PM 37.6222 -119.3097 270° West 388 447 32,000  Level Oakland Center
12:01PM 37.6250 -119.4444 272° West 387 445 32,000  Level Oakland Center
12:02PM 37.6261 -119.5800 271° West 387 445 32,000  Level Oakland Center
12:03PM 37.6264 -119.7147 270° West 386 444 32,000  Level Oakland Center
12:04PM 37.6264 -119.8528 270° West 388 447 32,000  Level Oakland Center
12:05PM 37.6275 -119.9889 271° West 388 447 32,000 -300 Level Oakland Center
12:06PM 37.6272 -120.1267 270° West 389 448 31,500 -1,380 Descending Oakland Center
12:07PM 37.6286 -120.2606 271° West 385 443 29,300 -2,040 Descending Oakland Center
12:08PM 37.6261 -120.3961 269° West 386 444 27,400 -1,980 Descending Oakland Center
12:10PM 37.6278 -120.6764 271° West 364 419 23,300 -1,920 Descending Oakland Center
12:11PM 37.6264 -120.8014 269° West 359 413 21,600 -1,740 Descending Oakland Center
12:12PM 37.6264 -120.9169 270° West 338 389 19,800 -1,860 Descending Oakland Center
12:13PM 37.6194 -121.0317 266° West 331 381 17,900 -1,920 Descending Oakland Center
12:14PM 37.6058 -121.1503 262° West 330 380 16,000 -1,860 Descending Oakland Center
12:15PM 37.5928 -121.2625 262° West 326 375 14,200 -1,740 Descending Oakland Center
12:16PM 37.5833 -121.3833 264° West 321 369 12,400 -1,560 Descending Northern Cal TRACON
12:17PM 37.5667 -121.5000 260° West 300 345 11,000 -720 Descending Northern Cal TRACON
12:18PM 37.5500 -121.6000 258° West 293 337 11,000 -240 Level Northern Cal TRACON
12:19PM 37.5333 -121.7167 260° West 254 292 10,600 -900 Descending Northern Cal TRACON
12:20PM 37.5167 -121.7833 253° West 241 277 9,300 -1,260 Descending Northern Cal TRACON
12:22PM 37.4833 -121.9167 253° West 200 230 7,100 -1,140 Descending Northern Cal TRACON
12:23PM 37.4667 -122.0000 256° West 215 247 6,000 -840 Descending Northern Cal TRACON
12:24PM 37.4833 -122.0500 293° West 204 235 5,500 -1,080 Descending Northern Cal TRACON
12:25PM 37.5167 -122.1167 302° West 204 235 4,000 -1,260 Descending Northern Cal TRACON
12:26PM 37.5333 -122.1833 288° West 199 229 3,000 -1,020 Descending Northern Cal TRACON
12:27PM 37.5667 -122.2500 302° West 192 221 2,000 -960 Descending Northern Cal TRACON
12:28PM 37.5833 -122.3000 293° West 155 178 1,100 -840 Descending Northern Cal TRACON
12:29PM 37.6078 -122.3436 305° West 154 177 200 -780 Descending Oakland Center